createdAt,value
2017-03-10T00:00:34.784Z,19.14
2017-03-10T00:01:37.709Z,19.12
2017-03-10T00:02:33.936Z,19.08
2017-03-10T00:03:32.086Z,19.07
2017-03-10T00:04:33.106Z,19.08
2017-03-10T00:05:33.577Z,19.62
2017-03-10T00:06:42.147Z,19.66
2017-03-10T00:07:38.226Z,19.69
2017-03-10T00:08:44.124Z,19.70
2017-03-10T00:09:35.720Z,19.70
2017-03-10T00:10:48.370Z,19.71
2017-03-10T00:11:32.541Z,19.71
2017-03-10T00:12:33.834Z,19.70
2017-03-10T00:13:27.457Z,19.70
2017-03-10T00:14:33.318Z,19.70
2017-03-10T00:15:38.354Z,19.70
2017-03-10T00:16:33.605Z,19.70
2017-03-10T00:17:31.540Z,19.33
2017-03-10T00:18:34.548Z,19.15
2017-03-10T00:20:35.078Z,19.06
2017-03-10T00:22:03.670Z,19.05
2017-03-10T00:22:41.094Z,19.04
2017-03-10T00:24:39.439Z,19.03
2017-03-10T00:25:34.796Z,19.03
2017-03-10T00:26:34.304Z,19.02
2017-03-10T00:27:34.054Z,19.03
2017-03-10T00:28:36.215Z,19.01
2017-03-10T00:29:33.545Z,19.02
2017-03-10T00:30:39.806Z,19.01
2017-03-10T00:31:38.388Z,19.01
2017-03-10T00:32:48.856Z,19.00
2017-03-10T00:33:33.198Z,19.00
2017-03-10T00:34:28.417Z,19.00
2017-03-10T00:35:33.569Z,19.00
2017-03-10T00:36:34.668Z,19.01
2017-03-10T00:37:33.997Z,19.00
2017-03-10T00:38:36.941Z,19.00
2017-03-10T00:39:37.868Z,18.99
2017-03-10T00:40:34.372Z,18.99
2017-03-10T00:41:39.380Z,18.99
2017-03-10T00:42:33.355Z,18.99
2017-03-10T00:43:49.719Z,19.00
2017-03-10T00:44:32.555Z,19.00
2017-03-10T00:45:43.054Z,18.99
2017-03-10T00:46:32.124Z,18.99
2017-03-10T00:47:37.077Z,18.99
2017-03-10T00:48:33.193Z,18.99
2017-03-10T00:49:33.727Z,18.99
2017-03-10T00:50:32.527Z,19.05
2017-03-10T00:51:33.409Z,18.98
2017-03-10T00:52:39.177Z,18.98
2017-03-10T00:53:28.902Z,18.99
2017-03-10T00:54:48.774Z,18.99
2017-03-10T00:55:33.343Z,18.99
2017-03-10T00:56:44.313Z,18.98
2017-03-10T00:57:35.240Z,18.99
2017-03-10T00:58:33.996Z,19.02
2017-03-10T00:59:32.355Z,18.97
2017-03-10T01:01:35.513Z,18.97
2017-03-10T21:30:19.366Z,20.20
2017-03-10T21:30:34.939Z,20.22
2017-03-10T21:31:47.430Z,20.18
2017-03-10T21:32:26.551Z,20.15
2017-03-10T21:33:20.822Z,20.12
2017-03-10T21:34:33.200Z,20.09
2017-03-10T21:35:37.315Z,20.06
2017-03-10T21:36:33.299Z,20.03
2017-03-10T21:37:27.368Z,19.99
2017-03-10T21:38:23.456Z,19.98
2017-03-10T21:39:19.334Z,19.96
2017-03-10T21:40:54.468Z,19.95
2017-03-10T21:41:21.825Z,19.95
2017-03-10T21:42:27.740Z,19.96
2017-03-10T21:43:37.439Z,19.96
2017-03-10T21:44:35.791Z,19.95
2017-03-10T21:45:25.312Z,19.95
2017-03-10T21:46:36.526Z,19.95
2017-03-10T21:47:26.879Z,19.94
2017-03-10T21:48:21.858Z,19.93
2017-03-10T21:49:20.326Z,19.93
2017-03-10T21:50:27.318Z,19.92
2017-03-10T21:51:32.033Z,19.92
2017-03-10T21:52:36.851Z,19.92
2017-03-10T21:53:38.878Z,19.92
2017-03-10T21:54:21.985Z,19.92
2017-03-10T21:55:26.651Z,19.91
2017-03-10T21:56:33.197Z,19.91
2017-03-10T21:57:42.948Z,19.91
2017-03-10T21:58:44.923Z,19.91
2017-03-10T21:59:26.550Z,19.91
2017-03-10T22:00:27.954Z,19.91
2017-03-10T22:01:56.757Z,19.90
2017-03-10T22:02:34.571Z,19.90
2017-03-10T22:03:47.275Z,20.43
2017-03-10T22:04:37.900Z,20.48
2017-03-10T22:05:22.284Z,20.51
2017-03-10T22:06:37.275Z,20.52
2017-03-10T22:07:37.876Z,20.53
2017-03-10T22:08:37.882Z,20.01
2017-03-10T22:09:27.300Z,19.95
2017-03-10T22:10:41.677Z,19.92
2017-03-10T22:11:42.216Z,19.90
2017-03-10T22:12:35.448Z,19.89
2017-03-10T22:13:28.554Z,19.87
2017-03-10T22:14:43.970Z,19.86
2017-03-10T22:15:34.908Z,19.85
2017-03-10T22:16:20.197Z,19.85
2017-03-10T22:17:33.146Z,19.85
2017-03-10T22:18:39.204Z,19.83
2017-03-10T22:19:42.568Z,20.35
2017-03-10T22:20:40.854Z,20.08
2017-03-10T22:21:21.114Z,19.91
2017-03-10T22:22:33.286Z,19.86
2017-03-10T22:23:37.250Z,19.84
2017-03-10T22:24:54.007Z,19.82
2017-03-10T22:25:52.924Z,19.80
2017-03-10T22:26:39.876Z,19.78
2017-03-10T22:27:37.618Z,19.76
2017-03-10T22:28:54.322Z,19.73
2017-03-10T22:29:35.677Z,19.70
2017-03-10T22:30:47.343Z,19.69
2017-03-10T22:31:26.635Z,19.67
2017-03-10T22:32:43.147Z,19.73
2017-03-10T22:33:37.245Z,19.63
2017-03-10T22:34:30.554Z,19.62
2017-03-10T22:35:33.030Z,20.15
2017-03-10T22:36:49.173Z,19.79
2017-03-10T22:37:28.699Z,19.67
2017-03-10T22:38:48.112Z,19.62
2017-03-10T22:39:20.595Z,19.58
2017-03-10T22:40:21.848Z,19.57
2017-03-10T22:41:26.931Z,19.56
2017-03-10T22:42:37.211Z,19.55
2017-03-10T22:43:28.128Z,19.58
2017-03-10T22:44:37.378Z,19.59
2017-03-10T22:45:28.807Z,19.61
2017-03-10T22:46:36.133Z,19.63
2017-03-10T22:47:26.683Z,19.68
2017-03-10T22:48:36.619Z,19.66
2017-03-10T22:49:33.360Z,19.67
2017-03-10T22:50:38.111Z,19.69
2017-03-10T22:51:41.122Z,19.71
2017-03-10T22:52:43.185Z,19.73
2017-03-10T22:53:39.291Z,19.82
2017-03-10T22:54:37.780Z,19.82
2017-03-10T22:55:39.782Z,19.80
2017-03-10T22:56:36.155Z,19.78
2017-03-10T22:57:26.769Z,19.75
2017-03-10T22:58:39.186Z,19.72
2017-03-10T22:59:37.389Z,19.70
2017-03-10T23:00:42.912Z,19.70
2017-03-10T23:01:39.993Z,19.67
2017-03-10T23:02:40.850Z,19.71
2017-03-10T23:03:28.416Z,19.64
2017-03-10T23:04:41.995Z,19.63
2017-03-10T23:05:29.049Z,19.62
2017-03-10T23:06:41.933Z,19.62
2017-03-10T23:07:37.876Z,19.61
2017-03-10T23:08:33.016Z,19.60
2017-03-10T23:09:38.178Z,19.60
2017-03-10T23:10:38.021Z,19.58
2017-03-10T23:11:34.835Z,19.58
2017-03-10T23:13:34.933Z,19.56
2017-03-10T23:14:28.411Z,19.56
2017-03-10T23:15:40.325Z,19.56
2017-03-10T23:16:46.355Z,19.55
2017-03-10T23:17:40.598Z,19.54
2017-03-10T23:18:50.004Z,19.52
2017-03-10T23:19:34.929Z,19.50
2017-03-10T23:20:21.897Z,20.02
2017-03-10T23:21:33.248Z,19.54
2017-03-10T23:22:42.823Z,19.56
2017-03-10T23:23:35.077Z,19.49
2017-03-10T23:24:26.646Z,19.53
2017-03-10T23:25:47.804Z,19.48
2017-03-10T23:26:43.489Z,19.47
2017-03-10T23:27:38.131Z,19.46
2017-03-10T23:28:48.750Z,19.47
2017-03-10T23:29:43.690Z,19.46
2017-03-10T23:30:27.567Z,19.45
2017-03-10T23:31:43.202Z,20.01
2017-03-10T23:32:38.975Z,20.05
2017-03-10T23:33:43.012Z,19.75
2017-03-10T23:34:41.136Z,19.54
2017-03-10T23:35:34.513Z,19.50
2017-03-10T23:36:27.207Z,19.47
2017-03-10T23:37:40.095Z,19.46
2017-03-10T23:38:47.292Z,19.44
2017-03-10T23:39:33.879Z,19.43
2017-03-10T23:40:45.471Z,19.43
2017-03-10T23:41:40.134Z,19.43
2017-03-10T23:42:48.809Z,19.41
2017-03-10T23:43:37.475Z,19.42
2017-03-10T23:44:44.475Z,19.41
2017-03-10T23:45:33.261Z,19.39
2017-03-10T23:46:44.161Z,19.39
2017-03-10T23:47:32.728Z,19.39
2017-03-10T23:49:56.215Z,19.98
2017-03-10T23:50:26.726Z,20.01
2017-03-10T23:52:38.801Z,19.49
2017-03-10T23:53:35.966Z,19.45
2017-03-10T23:54:57.464Z,19.95
2017-03-10T23:55:53.005Z,19.99
2017-03-10T23:56:48.784Z,20.00
2017-03-10T23:57:42.963Z,20.00
2017-03-10T23:58:48.296Z,19.47
2017-03-10T23:59:53.241Z,19.45
